Time;durP1;ratioP1;P1;durP2;ratioP2;P2;SDS_P1;SDS_P2;PMS_P1;PMS_P2;Temp;Humidity;BMP_temperature;BMP_pressure;BME280_temperature;BME280_humidity;BME280_pressure;Samples;Min_cycle;Max_cycle;Signal;HPM_P1;HPM_P2
2022/04/23 02:31:46;;;;;;;2.40;2.20;;;;;;;18.88;46.33;96209.88;4679077;23;20671;-87
2022/04/23 02:34:13;;;;;;;2.67;2.47;;;;;;;18.73;46.41;96185.81;4908055;29;20203;-87
2022/04/23 02:36:39;;;;;;;2.30;2.10;;;;;;;18.32;46.66;96123.09;4890078;29;20469;-87
2022/04/23 02:39:13;;;;;;;2.30;2.10;;;;;;;19.22;46.29;96268.22;4917685;29;20236;-86
2022/04/23 02:41:40;;;;;;;2.27;2.17;;;;;;;14.83;46.27;95592.84;4921641;29;20256;-87
2022/04/23 02:44:07;;;;;;;2.10;2.00;;;;;;;19.24;46.26;96265.72;4919891;29;20198;-86
2022/04/23 02:46:45;;;;;;;2.03;1.93;;;;;;;18.56;46.43;96151.59;4882948;29;20213;-86
2022/04/23 02:49:12;;;;;;;2.70;2.50;;;;;;;18.95;46.39;96216.78;4897858;29;20292;-87
2022/04/23 02:51:42;;;;;;;1.90;1.80;;;;;;;19.24;46.35;96270.81;4897512;29;20692;-87
2022/04/23 02:54:12;;;;;;;2.40;2.20;;;;;;;19.23;46.34;96287.78;4910516;29;20194;-88
2022/04/23 02:56:39;;;;;;;2.10;2.00;;;;;;;19.24;46.37;96265.72;4914851;29;20289;-87
2022/04/23 02:59:07;;;;;;;2.27;2.17;;;;;;;18.58;46.17;96170.28;4898453;29;20216;-87
2022/04/23 03:01:36;;;;;;;2.00;1.90;;;;;;;17.05;46.30;95912.13;4905395;29;20308;-86
2022/04/23 03:04:09;;;;;;;2.00;1.90;;;;;;;18.64;46.25;96165.28;4914877;29;20253;-88
2022/04/23 03:06:36;;;;;;;2.30;2.10;;;;;;;10.11;46.29;94704.56;4906062;29;20616;-87
2022/04/23 03:09:03;;;;;;;2.00;1.90;;;;;;;19.23;46.28;96264.88;4912483;29;20206;-89
2022/04/23 03:11:32;;;;;;;2.00;1.90;;;;;;;19.22;46.62;96252.94;4931557;29;20253;-87
2022/04/23 03:13:59;;;;;;;2.20;2.10;;;;;;;19.23;46.50;96257.22;4885934;29;20660;-85
2022/04/23 03:16:29;;;;;;;2.00;1.90;;;;;;;19.23;46.47;96256.38;4932040;29;20202;-86
2022/04/23 03:18:59;;;;;;;1.93;1.83;;;;;;;16.39;46.41;95774.59;4917896;29;20679;-86
2022/04/23 03:21:25;;;;;;;1.90;1.80;;;;;;;18.31;46.65;96112.06;4891855;29;20237;-87
2022/04/23 03:23:52;;;;;;;1.93;1.73;;;;;;;18.85;46.33;96203.88;4901249;29;20268;-89
2022/04/23 03:26:19;;;;;;;2.23;2.03;;;;;;;16.31;46.56;95773.56;4917912;29;20279;-87
2022/04/23 03:28:45;;;;;;;2.10;2.00;;;;;;;16.88;46.39;95851.72;4926323;29;20230;-87
2022/04/23 03:31:12;;;;;;;2.23;2.10;;;;;;;19.22;46.59;96257.22;4931557;29;20241;-89
2022/04/23 03:33:40;;;;;;;2.10;2.00;;;;;;;16.51;46.65;95850.06;4901063;29;20657;-88
2022/04/23 03:36:07;;;;;;;2.10;2.00;;;;;;;18.45;46.53;96115.78;4917898;29;20201;-89
2022/04/23 03:38:33;;;;;;;2.10;2.00;;;;;;;19.22;46.46;96244.47;4917742;29;20257;-87
2022/04/23 03:41:08;;;;;;;2.37;2.17;;;;;;;18.44;46.72;96120.84;4887243;29;20225;-88
2022/04/23 03:43:35;;;;;;;2.00;1.90;;;;;;;16.83;46.72;95863.44;4917425;29;20238;-86
2022/04/23 03:46:02;;;;;;;2.20;1.93;;;;;;;19.21;46.43;96242.72;4927718;29;20249;-88
2022/04/23 03:48:31;;;;;;;2.10;2.00;;;;;;;14.27;46.40;95439.84;4917834;29;20202;-87
2022/04/23 03:50:58;;;;;;;2.00;1.90;;;;;;;17.79;45.95;96059.31;4910882;29;20606;-90
2022/04/23 03:53:25;;;;;;;2.23;2.03;;;;;;;19.17;46.68;96252.03;4932060;29;20667;-87
2022/04/23 03:55:51;;;;;;;1.90;1.80;;;;;;;14.02;46.63;95367.66;4900190;29;20561;-87
2022/04/23 03:58:25;;;;;;;2.00;1.90;;;;;;;15.17;46.62;95592.81;4901523;29;20564;-87
2022/04/23 04:00:52;;;;;;;1.90;1.80;;;;;;;18.26;46.83;96102.66;4925773;29;20659;-87
2022/04/23 04:03:18;;;;;;;2.03;1.93;;;;;;;17.97;46.59;96059.69;4916897;29;20205;-89
2022/04/23 04:05:48;;;;;;;1.80;1.70;;;;;;;14.29;46.56;95445.75;4916705;29;20208;-87
2022/04/23 04:08:14;;;;;;;1.93;1.83;;;;;;;17.97;46.71;96059.69;4897941;29;20735;-88
2022/04/23 04:10:41;;;;;;;2.03;1.87;;;;;;;17.30;46.70;95951.59;4899915;29;20202;-89
2022/04/23 04:13:08;;;;;;;1.97;1.87;;;;;;;13.82;46.81;95373.00;4928193;29;20225;-87
2022/04/23 04:15:34;;;;;;;1.70;1.60;;;;;;;13.50;46.71;95346.97;4908655;29;20201;-88
2022/04/23 04:18:01;;;;;;;1.93;1.83;;;;;;;17.66;46.66;96039.59;4900853;29;20456;-87
2022/04/23 04:20:32;;;;;;;2.00;1.80;;;;;;;18.53;46.78;96162.53;4899327;29;20202;-86
2022/04/23 04:23:00;;;;;;;2.00;1.90;;;;;;;19.10;46.74;96256.97;4910356;29;20237;-88
2022/04/23 04:25:26;;;;;;;2.17;2.00;;;;;;;18.78;46.45;96202.91;4915130;29;20205;-87
2022/04/23 04:27:56;;;;;;;1.70;1.60;;;;;;;19.11;46.78;96253.59;4900399;29;20257;-87
2022/04/23 04:30:26;;;;;;;1.70;1.60;;;;;;;18.03;46.64;96064.91;4884410;29;20292;-88
2022/04/23 04:32:52;;;;;;;1.90;1.80;;;;;;;12.58;46.45;95173.09;4899787;29;20229;-88
2022/04/23 04:35:19;;;;;;;1.80;1.70;;;;;;;10.91;46.32;94850.75;4929407;29;20212;-87
2022/04/23 04:37:46;;;;;;;1.63;1.53;;;;;;;16.04;46.64;95723.94;4924865;29;20560;-87
2022/04/23 04:40:13;;;;;;;2.10;2.00;;;;;;;10.03;46.54;94786.22;4899231;29;20213;-87
2022/04/23 04:42:42;;;;;;;1.80;1.70;;;;;;;10.99;46.54;94943.06;4916424;29;20312;-87
2022/04/23 04:45:09;;;;;;;1.60;1.50;;;;;;;17.16;46.72;95923.38;4927287;29;20240;-87
2022/04/23 04:47:36;;;;;;;2.00;1.90;;;;;;;19.17;46.73;96262.22;4923110;29;20682;-87
2022/04/23 04:50:03;;;;;;;1.93;1.83;;;;;;;19.17;46.75;96264.75;4899222;29;20217;-85
2022/04/23 04:52:30;;;;;;;1.53;1.43;;;;;;;18.00;46.40;96091.97;4899812;29;20229;-87
2022/04/23 04:54:56;;;;;;;1.60;1.50;;;;;;;9.69;46.27;94638.13;4926094;29;20292;-87
2022/04/23 04:57:23;;;;;;;1.73;1.63;;;;;;;14.76;46.18;95580.84;4916150;29;20711;-88
2022/04/23 04:59:51;;;;;;;1.73;1.63;;;;;;;15.13;46.33;95589.34;4884418;29;20631;-87
2022/04/23 05:02:18;;;;;;;1.97;1.87;;;;;;;19.21;46.43;96258.88;4912560;29;20225;-87
2022/04/23 05:04:45;;;;;;;1.83;1.73;;;;;;;19.22;46.44;96268.22;4924525;29;20213;-87
2022/04/23 05:07:11;;;;;;;2.00;1.90;;;;;;;19.22;46.67;96258.03;4899999;29;20205;-87
2022/04/23 05:09:38;;;;;;;1.80;1.70;;;;;;;17.75;46.42;96008.41;4916147;29;20265;-87
2022/04/23 05:12:05;;;;;;;3.90;1.80;;;;;;;19.22;46.42;96252.94;4915501;29;20277;-87
2022/04/23 05:14:32;;;;;;;1.90;1.80;;;;;;;13.73;46.37;95366.06;4914253;29;20575;-88
2022/04/23 05:17:03;;;;;;;2.00;1.90;;;;;;;19.22;46.36;96249.56;4926377;29;20202;-86
2022/04/23 05:19:30;;;;;;;1.87;1.73;;;;;;;18.90;46.44;96194.66;4916234;29;20209;-87
2022/04/23 05:21:57;;;;;;;1.80;1.70;;;;;;;15.22;46.42;95584.50;4905234;29;20595;-87
2022/04/23 05:24:31;;;;;;;1.87;1.77;;;;;;;9.85;46.16;94643.63;4915857;29;20212;-87
2022/04/23 05:27:01;;;;;;;1.70;1.60;;;;;;;16.01;46.35;95690.94;4927341;29;20750;-88
2022/04/23 05:29:30;;;;;;;1.83;1.73;;;;;;;19.20;46.54;96236.81;4932065;29;20736;-87
2022/04/23 05:32:00;;;;;;;1.80;1.70;;;;;;;19.21;46.55;96235.09;4917527;29;20749;-87
2022/04/23 05:34:28;;;;;;;1.63;1.53;;;;;;;17.92;46.50;96017.25;4899750;29;20231;-87
2022/04/23 05:36:55;;;;;;;1.97;1.87;;;;;;;19.21;46.64;96243.59;4884102;29;20662;-87
2022/04/23 05:39:21;;;;;;;1.77;1.67;;;;;;;16.96;46.60;95855.28;4884602;29;20236;-89
2022/04/23 05:41:48;;;;;;;1.90;1.80;;;;;;;18.13;46.57;96071.03;4887396;29;20253;-88
2022/04/23 05:44:15;;;;;;;1.80;1.70;;;;;;;18.05;46.74;96040.38;4916882;29;20701;-87
2022/04/23 05:46:41;;;;;;;1.80;1.70;;;;;;;18.44;46.61;96108.97;4918404;29;20225;-87
2022/04/23 05:49:08;;;;;;;1.73;1.63;;;;;;;18.18;46.54;96061.81;4915325;29;20242;-86
2022/04/23 05:51:34;;;;;;;2.60;1.73;;;;;;;19.20;46.50;96243.56;4900214;29;20243;-90
2022/04/23 05:54:01;;;;;;;1.80;1.70;;;;;;;14.08;46.51;95371.97;4918211;29;20202;-93
2022/04/23 05:56:30;;;;;;;1.70;1.60;;;;;;;16.02;46.56;95702.81;4898418;29;20254;-90
2022/04/23 05:58:57;;;;;;;1.70;1.60;;;;;;;19.20;46.63;96251.22;4872350;29;20205;-87
2022/04/23 06:01:24;;;;;;;1.70;1.60;;;;;;;18.23;46.55;96085.63;4912340;29;22234;-86
2022/04/23 06:03:50;;;;;;;1.70;1.60;;;;;;;19.20;46.82;96262.28;4889374;29;20217;-87
2022/04/23 06:06:19;;;;;;;1.63;1.53;;;;;;;18.44;46.64;96126.75;4884713;29;20202;-86
2022/04/23 06:08:45;;;;;;;1.83;1.73;;;;;;;18.68;46.69;96172.19;4899655;29;20236;-87
2022/04/23 06:11:12;;;;;;;1.90;1.80;;;;;;;17.05;46.71;95889.28;4915414;29;20345;-88
2022/04/23 06:13:39;;;;;;;1.90;1.80;;;;;;;18.22;47.03;96111.88;4899896;29;20229;-89
2022/04/23 06:16:05;;;;;;;1.80;1.70;;;;;;;18.35;46.88;96126.56;4903948;29;20245;-85
2022/04/23 06:18:32;;;;;;;1.83;1.73;;;;;;;18.48;46.70;96142.94;4886437;29;20217;-88
2022/04/23 06:20:58;;;;;;;1.87;1.77;;;;;;;17.36;46.75;95947.50;4882131;29;20679;-87
2022/04/23 06:23:25;;;;;;;1.90;1.80;;;;;;;15.38;46.78;95676.84;4900197;29;20316;-91
2022/04/23 06:25:52;;;;;;;1.80;1.70;;;;;;;18.12;46.90;96093.03;4916057;29;20240;-88
2022/04/23 06:28:19;;;;;;;1.60;1.50;;;;;;;18.15;46.83;96110.91;4917365;29;20252;-88
2022/04/23 06:30:45;;;;;;;1.77;1.67;;;;;;;17.52;46.91;96043.50;4915915;29;20317;-88
2022/04/23 06:33:12;;;;;;;1.90;1.80;;;;;;;18.60;46.63;96163.53;4931452;29;20248;-89
2022/04/23 06:35:38;;;;;;;1.73;1.63;;;;;;;19.11;46.74;96266.31;4900171;29;20718;-87
2022/04/23 06:38:05;;;;;;;1.73;1.63;;;;;;;17.50;46.79;95991.00;4899954;29;20222;-85
2022/04/23 06:40:32;;;;;;;1.80;1.70;;;;;;;17.61;46.71;96003.06;4901046;29;20202;-88
2022/04/23 06:42:58;;;;;;;1.80;1.70;;;;;;;19.07;46.72;96259.47;4884739;29;20276;-87
2022/04/23 06:45:25;;;;;;;1.70;1.60;;;;;;;19.11;46.72;96271.41;4908232;29;20237;-89
2022/04/23 06:48:04;;;;;;;1.87;1.77;;;;;;;18.61;46.67;96190.69;4905496;29;20285;-88
2022/04/23 06:50:31;;;;;;;1.70;1.60;;;;;;;19.12;46.87;96273.13;4891821;29;20213;-88
2022/04/23 06:53:02;;;;;;;1.80;1.70;;;;;;;17.91;46.81;96059.56;4897005;29;20312;-86
2022/04/23 06:55:28;;;;;;;1.70;1.60;;;;;;;18.70;46.73;96196.81;4896534;29;20201;-87
2022/04/23 06:57:55;;;;;;;1.87;1.77;;;;;;;17.41;46.81;95976.34;4886525;29;20300;-91
2022/04/23 07:00:22;;;;;;;2.10;2.00;;;;;;;17.13;46.71;95918.25;4886137;29;20301;-90
2022/04/23 07:02:50;;;;;;;3.37;1.70;;;;;;;18.79;46.65;96206.28;4863808;29;20229;-86
2022/04/23 07:05:17;;;;;;;1.90;1.80;;;;;;;18.34;46.65;96126.50;4874098;29;20225;-89
2022/04/23 07:08:13;;;;;;;2.00;1.90;;;;;;;19.16;46.63;96264.72;4889410;29;20233;-88
2022/04/23 07:10:40;;;;;;;2.00;1.90;;;;;;;19.17;46.30;96256.25;4867090;29;20252;-84
2022/04/23 07:13:07;;;;;;;1.90;1.80;;;;;;;18.94;46.56;96212.53;4916074;29;20213;-84
2022/04/23 07:15:34;;;;;;;2.00;1.90;;;;;;;18.86;46.69;96201.34;4917021;29;20233;-87
2022/04/23 07:18:00;;;;;;;2.17;2.07;;;;;;;18.79;46.47;96189.34;4903058;29;20202;-87
2022/04/23 07:20:27;;;;;;;3.23;2.07;;;;;;;18.34;46.65;96114.66;4892190;29;20218;-87
2022/04/23 07:25:39;;;;;;;2.40;2.20;;;;;;;19.21;46.53;96261.44;4903774;29;20229;-88
2022/04/23 07:28:06;;;;;;;2.33;2.20;;;;;;;17.51;46.51;95964.75;4919805;29;20205;-85
2022/04/23 07:30:34;;;;;;;2.00;1.90;;;;;;;18.01;46.42;96060.63;4900852;29;20624;-88
2022/04/23 07:33:01;;;;;;;2.10;2.00;;;;;;;18.27;46.73;96096.72;4884378;29;20233;-89
2022/04/23 07:38:19;;;;;;;2.37;2.17;;;;;;;18.66;46.39;96168.72;4872030;29;20300;-86
2022/04/23 07:40:47;;;;;;;2.20;2.10;;;;;;;18.90;46.47;96204.81;4880800;29;20676;-87
2022/04/23 07:43:14;;;;;;;2.40;2.20;;;;;;;17.76;46.27;96016.06;4881747;29;20256;-86
2022/04/23 07:45:43;;;;;;;2.43;2.23;;;;;;;19.21;46.54;96263.09;4885013;29;20649;-85
2022/04/23 07:48:12;;;;;;;2.20;2.00;;;;;;;18.20;46.56;96093.19;4924334;29;20285;-86
2022/04/23 07:50:40;;;;;;;2.33;2.17;;;;;;;14.35;46.58;95435.81;4870327;29;20206;-88
2022/04/23 07:53:11;;;;;;;2.33;2.13;;;;;;;19.18;46.56;96257.97;4869571;29;20305;-89
2022/04/23 07:55:38;;;;;;;2.60;2.40;;;;;;;19.21;46.74;96266.53;4904391;29;20257;-87
2022/04/23 07:58:05;;;;;;;3.00;2.20;;;;;;;18.26;46.54;96106.03;4916664;29;20201;-84
2022/04/23 08:00:34;;;;;;;3.50;3.20;;;;;;;19.21;46.52;96252.91;4883057;29;20285;-88
2022/04/23 08:03:04;;;;;;;3.80;3.50;;;;;;;17.49;46.39;95964.72;4902163;29;20279;-90
2022/04/23 08:05:31;;;;;;;3.73;3.43;;;;;;;18.74;46.67;96170.59;4884497;29;20228;-90
2022/04/23 08:07:59;;;;;;;3.60;3.27;;;;;;;18.12;46.70;96062.53;4877381;29;20197;-88
2022/04/23 08:10:25;;;;;;;4.30;3.53;;;;;;;19.18;46.59;96256.28;4877121;29;20301;-89
2022/04/23 08:12:54;;;;;;;4.03;2.93;;;;;;;18.76;46.59;96176.56;4896810;29;20241;-88
2022/04/23 08:15:20;;;;;;;3.70;3.40;;;;;;;19.19;46.89;96244.41;4863647;29;20293;-87
2022/04/23 08:17:47;;;;;;;4.70;3.03;;;;;;;16.70;46.44;95819.25;4884887;29;20198;-84
2022/04/23 08:20:14;;;;;;;4.33;3.17;;;;;;;18.86;46.55;96186.06;4873773;29;20253;-86
2022/04/23 08:22:41;;;;;;;5.40;3.00;;;;;;;18.60;46.86;96135.53;4866735;29;20269;-88
2022/04/23 08:25:08;;;;;;;3.97;2.80;;;;;;;17.49;46.59;95946.94;4886255;29;20249;-89
2022/04/23 08:27:47;;;;;;;2.80;2.60;;;;;;;18.85;46.74;96196.22;4862571;29;20250;-88
2022/04/23 08:33:03;;;;;;;3.03;2.80;;;;;;;19.15;46.87;96235.84;4887433;29;20332;-88
2022/04/23 08:35:30;;;;;;;3.03;2.53;;;;;;;18.86;46.78;96185.25;4916101;29;20252;-88
2022/04/23 08:37:57;;;;;;;2.77;2.57;;;;;;;17.32;46.72;95922.03;4895031;29;20665;-89
2022/04/23 08:40:24;;;;;;;3.00;2.80;;;;;;;19.13;46.88;96234.94;4888974;29;20293;-88
2022/04/23 08:42:51;;;;;;;4.50;3.37;;;;;;;19.12;46.62;96230.69;4876762;29;20308;-88
2022/04/23 08:45:17;;;;;;;3.17;2.83;;;;;;;19.12;46.91;96227.28;4869152;29;20202;-90
2022/04/23 08:47:45;;;;;;;3.10;2.80;;;;;;;18.60;46.72;96143.19;4889259;29;20224;-89
2022/04/23 08:50:12;;;;;;;2.77;2.53;;;;;;;16.46;46.71;95845.72;4874894;29;20645;-90
2022/04/23 08:52:42;;;;;;;2.83;2.63;;;;;;;17.45;46.86;95950.25;4873761;29;20314;-88
2022/04/23 08:55:09;;;;;;;3.37;3.07;;;;;;;18.62;46.72;96144.06;4866243;29;20229;-88
2022/04/23 08:57:36;;;;;;;3.10;2.87;;;;;;;17.11;46.82;95888.59;4865518;29;20744;-88
2022/04/23 09:00:08;;;;;;;3.97;2.60;;;;;;;19.10;46.90;96231.50;4869855;29;20258;-88
2022/04/23 09:02:37;;;;;;;3.47;2.77;;;;;;;18.07;46.79;96054.00;4879935;29;22532;-88
2022/04/23 09:05:05;;;;;;;3.07;2.77;;;;;;;18.70;46.96;96156.09;4884880;29;20301;-91
2022/04/23 09:07:32;;;;;;;3.00;2.60;;;;;;;19.10;47.07;96229.81;4870715;29;20267;-88
2022/04/23 09:09:59;;;;;;;2.90;2.70;;;;;;;18.26;47.09;96080.59;4903709;29;20232;-88
2022/04/23 09:12:26;;;;;;;2.50;2.30;;;;;;;18.29;47.03;96108.63;4882357;29;20257;-89
2022/04/23 09:15:04;;;;;;;4.13;3.20;;;;;;;18.82;46.77;96178.38;4876837;29;20242;-91
2022/04/23 09:25:52;;;;;;;2.80;2.60;;;;;;;18.03;46.94;96031.03;4881104;29;20308;-86
2022/04/23 09:28:20;;;;;;;2.73;2.53;;;;;;;19.15;46.80;96217.16;4885232;29;20261;-87
2022/04/23 09:30:48;;;;;;;2.97;2.77;;;;;;;18.58;46.74;96111.75;4891026;29;20230;-88
2022/04/23 09:33:15;;;;;;;3.03;2.73;;;;;;;16.74;46.95;95797.31;4873629;29;20216;-87
2022/04/23 09:36:12;;;;;;;3.20;2.90;;;;;;;18.57;46.93;96126.19;4857406;29;20214;-87
2022/04/23 09:38:42;;;;;;;3.33;2.67;;;;;;;18.90;46.92;96180.25;4875630;29;20238;-89
2022/04/23 09:41:27;;;;;;;3.57;2.70;;;;;;;19.20;46.85;96230.84;4860341;29;20222;-88
2022/04/23 09:44:12;;;;;;;2.80;2.60;;;;;;;18.83;46.51;96168.22;4890601;29;20751;-88
2022/04/23 09:46:46;;;;;;;2.80;2.60;;;;;;;17.89;46.93;95996.84;4878113;29;20946;-88
2022/04/23 09:49:32;;;;;;;3.00;2.80;;;;;;;18.49;46.95;96093.78;4882284;29;20213;-88
2022/04/23 09:52:03;;;;;;;2.87;2.67;;;;;;;18.32;46.75;96065.47;4867795;29;20369;-88
2022/04/23 09:54:33;;;;;;;2.90;2.60;;;;;;;19.25;46.75;96222.47;4864280;29;20230;-89
2022/04/23 09:57:00;;;;;;;3.57;2.87;;;;;;;17.61;46.78;95943.78;4865704;29;20310;-88
2022/04/23 09:59:27;;;;;;;3.87;2.80;;;;;;;17.15;46.61;95862.44;4878265;29;20207;-87
2022/04/23 10:01:54;;;;;;;3.03;2.73;;;;;;;18.82;46.75;96153.78;4882143;29;20735;-88
2022/04/23 10:04:25;;;;;;;3.70;3.00;;;;;;;18.94;46.91;96178.59;4894101;29;20258;-89
2022/04/23 10:06:52;;;;;;;2.97;2.70;;;;;;;18.21;46.90;96062.72;4868356;29;20242;-87
2022/04/23 10:09:21;;;;;;;2.80;2.60;;;;;;;19.24;46.85;96220.72;4856659;29;20218;-90
2022/04/23 10:12:00;;;;;;;2.77;2.57;;;;;;;18.69;46.80;96138.25;4862349;29;20219;-88
2022/04/23 10:14:26;;;;;;;3.20;2.90;;;;;;;18.61;47.12;96114.34;4873770;29;20203;-90
2022/04/23 10:16:53;;;;;;;3.43;2.97;;;;;;;16.63;46.68;95778.47;4868321;29;20249;-88
2022/04/23 10:19:20;;;;;;;3.10;2.90;;;;;;;17.49;46.47;95928.31;4874624;29;20737;-91
2022/04/23 10:22:07;;;;;;;3.40;2.97;;;;;;;19.27;46.78;96230.16;4884337;29;20312;-88
2022/04/23 10:24:49;;;;;;;3.13;2.83;;;;;;;17.12;46.96;95875.06;4874864;29;20317;-89
2022/04/23 10:27:17;;;;;;;3.13;2.83;;;;;;;18.45;47.11;96110.69;4866690;29;20211;-88
2022/04/23 10:29:43;;;;;;;3.50;2.90;;;;;;;18.95;46.46;96188.78;4882779;29;20228;-90
2022/04/23 10:32:10;;;;;;;3.33;3.00;;;;;;;19.25;46.96;96232.66;4887244;29;20282;-88
2022/04/23 10:34:38;;;;;;;2.90;2.63;;;;;;;18.72;46.88;96140.88;4892620;29;20258;-88
2022/04/23 10:37:20;;;;;;;3.20;2.67;;;;;;;19.26;46.85;96228.41;4857258;29;20630;-86
2022/04/23 10:39:53;;;;;;;2.87;2.67;;;;;;;19.26;46.74;96228.41;4892663;29;20210;-88
2022/04/23 10:42:23;;;;;;;3.27;2.77;;;;;;;17.85;46.92;95984.91;4886478;29;20234;-87
2022/04/23 10:44:50;;;;;;;3.00;2.80;;;;;;;15.75;46.92;95622.00;4863784;29;20257;-86
2022/04/23 10:47:30;;;;;;;2.93;2.73;;;;;;;18.72;46.90;96133.22;4855579;29;20647;-88
2022/04/23 10:50:20;;;;;;;3.63;3.00;;;;;;;19.24;46.85;96220.72;4863552;29;20296;-85
2022/04/23 10:52:47;;;;;;;2.90;2.70;;;;;;;18.44;47.11;96098.78;4871095;29;20253;-89
2022/04/23 10:55:14;;;;;;;2.53;2.33;;;;;;;18.30;46.94;96059.50;4858401;29;20629;-88
2022/04/23 10:57:50;;;;;;;2.87;2.67;;;;;;;18.13;47.15;96036.31;4852756;29;20298;-88
2022/04/23 11:00:19;;;;;;;3.00;2.70;;;;;;;18.88;47.03;96158.13;4858355;29;20275;-85
2022/04/23 11:03:06;;;;;;;2.83;2.63;;;;;;;19.21;46.84;96218.13;4852912;29;20250;-87
2022/04/23 11:13:57;;;;;;;2.97;2.67;;;;;;;19.19;46.92;96201.97;4873001;29;20298;-88
2022/04/23 11:16:29;;;;;;;2.70;2.50;;;;;;;17.83;46.87;95978.94;4869272;29;20243;-88
2022/04/23 11:19:00;;;;;;;2.60;2.40;;;;;;;17.59;47.20;95914.97;4852664;29;20505;-83
2022/04/23 11:21:28;;;;;;;3.27;2.97;;;;;;;17.00;47.24;95816.44;4866610;29;20260;-88
2022/04/23 11:23:55;;;;;;;4.00;2.73;;;;;;;18.81;47.13;96131.72;4863203;29;20501;-88
2022/04/23 11:26:42;;;;;;;4.47;2.83;;;;;;;19.19;47.01;96185.84;4850893;29;20689;-84
2022/04/23 11:29:09;;;;;;;3.67;2.90;;;;;;;18.79;47.02;96123.19;4860407;29;20199;-88
2022/04/23 11:31:35;;;;;;;2.60;2.40;;;;;;;18.16;47.06;96010.09;4868656;29;20254;-88
2022/04/23 11:34:02;;;;;;;2.97;2.77;;;;;;;18.30;46.93;96066.28;4870751;29;20718;-85
2022/04/23 11:36:33;;;;;;;3.03;2.73;;;;;;;18.69;47.18;96095.88;4853627;29;20237;-87
2022/04/23 11:39:04;;;;;;;3.40;2.93;;;;;;;19.20;46.90;96172.28;4899546;29;20672;-88
2022/04/23 11:41:43;;;;;;;2.73;2.50;;;;;;;18.85;47.35;96113.13;4884747;29;20249;-86
2022/04/23 11:44:17;;;;;;;2.90;2.70;;;;;;;19.22;46.87;96180.81;4871076;29;20258;-88
2022/04/23 11:46:45;;;;;;;3.23;2.70;;;;;;;18.90;46.99;96119.16;4884466;29;20233;-89
2022/04/23 11:49:31;;;;;;;3.03;2.53;;;;;;;19.24;46.94;96174.03;4869542;29;20289;-88
2022/04/23 11:52:08;;;;;;;2.60;2.40;;;;;;;18.52;46.69;96055.69;4899123;29;20213;-87
2022/04/23 11:54:39;;;;;;;5.10;2.90;;;;;;;19.26;46.87;96174.91;4872698;29;20305;-86
2022/04/23 11:57:13;;;;;;;3.97;2.80;;;;;;;18.24;47.09;96000.91;4870725;29;20233;-87
2022/04/23 11:59:47;;;;;;;3.27;2.57;;;;;;;18.98;47.12;96126.91;4878919;29;20673;-87
2022/04/23 12:02:21;;;;;;;3.07;2.77;;;;;;;18.51;47.08;96041.25;4889382;29;20257;-87
2022/04/23 12:04:58;;;;;;;3.37;2.63;;;;;;;17.74;46.95;95933.88;4899835;29;20222;-87
2022/04/23 12:07:26;;;;;;;5.07;2.60;;;;;;;18.44;46.98;96029.28;4895175;29;20197;-89
2022/04/23 12:09:57;;;;;;;4.47;3.10;;;;;;;18.08;46.83;95965.84;4901643;29;20264;-86
2022/04/23 12:12:29;;;;;;;3.73;2.87;;;;;;;19.30;47.10;96167.38;4897342;29;20250;-90
2022/04/23 12:14:58;;;;;;;6.00;2.90;;;;;;;18.30;46.88;95993.41;4898466;29;20696;-89
2022/04/23 12:17:31;;;;;;;4.07;2.80;;;;;;;18.56;47.11;96043.03;4863629;29;20221;-89
2022/04/23 12:44:21;;;;;;;3.20;2.90;;;;;;;16.28;46.98;95633.25;4997942;23;20220;-87
2022/04/23 12:47:00;;;;;;;5.13;2.50;;;;;;;18.77;47.12;96060.38;4914950;29;20218;-90
2022/04/23 12:55:14;;;;;;;4.90;2.80;;;;;;;19.32;47.18;96124.97;5030682;23;20250;-91
2022/04/23 12:57:45;;;;;;;4.30;2.70;;;;;;;19.32;47.27;96121.56;4865926;29;20199;-90
2022/04/23 13:00:14;;;;;;;4.17;2.60;;;;;;;17.40;47.21;95796.06;4892141;29;20218;-90
2022/04/23 13:02:43;;;;;;;3.50;2.73;;;;;;;17.15;47.12;95764.31;4863672;29;20310;-91
2022/04/23 13:05:11;;;;;;;3.20;3.00;;;;;;;17.23;47.07;95765.28;4883102;29;20706;-90
2022/04/23 13:10:23;;;;;;;5.33;2.73;;;;;;;18.47;46.92;95976.75;4876107;29;20391;-90
2022/04/23 13:12:50;;;;;;;2.53;2.33;;;;;;;19.04;47.21;96061.66;4852741;29;20215;-90
2022/04/23 13:15:17;;;;;;;3.23;2.87;;;;;;;17.77;47.51;95861.97;4856807;29;20216;-91
2022/04/23 13:17:45;;;;;;;3.83;2.53;;;;;;;19.05;47.21;96065.94;4851770;29;20211;-91
2022/04/23 13:20:12;;;;;;;3.30;3.00;;;;;;;16.22;47.23;95595.09;4864653;29;20238;-91
2022/04/23 13:22:43;;;;;;;4.70;2.83;;;;;;;16.44;47.14;95604.88;4873559;29;20211;-89
2022/04/23 13:25:15;;;;;;;3.50;3.00;;;;;;;17.49;46.98;95807.28;4870345;29;20229;-91
2022/04/23 13:27:42;;;;;;;3.00;2.63;;;;;;;17.34;46.92;95763.81;4861753;29;20647;-91
2022/04/23 13:30:10;;;;;;;4.23;2.90;;;;;;;16.79;47.08;95674.84;4867679;29;20304;-87
2022/04/23 13:32:37;;;;;;;3.20;2.60;;;;;;;17.68;47.33;95838.94;4873710;29;20210;-91
2022/04/23 13:35:05;;;;;;;3.17;2.87;;;;;;;17.59;47.14;95791.34;4854060;29;20218;-90
2022/04/23 13:37:32;;;;;;;3.93;2.67;;;;;;;17.33;47.12;95731.66;4866175;29;20222;-91
2022/04/23 13:39:59;;;;;;;4.00;2.97;;;;;;;17.61;47.11;95783.75;4860296;29;20260;-90
2022/04/23 13:42:26;;;;;;;4.00;2.80;;;;;;;17.23;47.30;95711.16;4874740;29;20231;-91
2022/04/23 13:44:53;;;;;;;4.90;2.83;;;;;;;19.13;47.40;96027.88;4862453;29;20294;-91
2022/04/23 13:47:20;;;;;;;3.10;2.80;;;;;;;18.21;47.14;95883.91;4865972;29;20190;-89
2022/04/23 13:49:47;;;;;;;3.93;2.77;;;;;;;17.69;47.12;95787.31;4864787;29;20513;-91
2022/04/23 13:52:14;;;;;;;3.37;3.07;;;;;;;17.08;47.06;95666.03;4865153;29;20209;-89
2022/04/23 13:54:41;;;;;;;3.37;2.90;;;;;;;17.71;47.20;95778.88;4866142;29;20676;-89
2022/04/23 13:57:08;;;;;;;3.23;2.93;;;;;;;18.66;47.06;95949.94;4862803;29;20210;-92
2022/04/23 13:59:35;;;;;;;3.20;2.87;;;;;;;16.82;47.34;95633.47;4868801;29;20235;-91
2022/04/23 14:10:39;;;;;;;3.40;2.70;;;;;;;17.67;47.10;95811.81;4828836;29;20233;-89
2022/04/23 14:13:07;;;;;;;6.47;3.20;;;;;;;17.49;47.16;95786.09;4793432;29;20227;-89
2022/04/23 14:15:34;;;;;;;4.37;2.93;;;;;;;18.35;47.12;95914.66;4854639;29;20220;-91
2022/04/23 14:18:02;;;;;;;4.67;3.17;;;;;;;17.23;47.31;95703.53;4865672;29;20240;-90
2022/04/23 14:20:28;;;;;;;4.63;3.20;;;;;;;18.62;47.18;95964.28;4863297;29;20317;-89
2022/04/23 14:23:00;;;;;;;7.47;2.93;;;;;;;16.84;47.37;95645.31;4853369;29;20207;-91
2022/04/23 14:25:31;;;;;;;3.97;2.73;;;;;;;17.04;47.23;95678.66;4875354;29;20222;-89
2022/04/23 14:28:00;;;;;;;8.17;3.10;;;;;;;17.83;47.54;95819.72;4858399;29;20214;-90
2022/04/23 14:30:27;;;;;;;5.73;3.33;;;;;;;18.71;47.31;95946.59;4873961;29;20235;-89
2022/04/23 14:32:54;;;;;;;9.93;3.10;;;;;;;18.35;47.37;95892.59;4859567;29;20210;-90
2022/04/23 14:35:21;;;;;;;4.30;3.13;;;;;;;17.64;47.40;95786.34;4873410;29;20218;-89
2022/04/23 14:37:49;;;;;;;4.63;3.00;;;;;;;17.59;47.05;95773.59;4860918;29;20293;-89
2022/04/23 14:40:16;;;;;;;6.03;3.03;;;;;;;17.25;47.22;95696.78;4862613;29;20651;-89
2022/04/23 14:42:46;;;;;;;5.33;3.20;;;;;;;18.50;47.53;95899.66;4884635;29;20211;-92
2022/04/23 14:45:17;;;;;;;4.60;3.03;;;;;;;17.19;47.40;95681.47;4859248;29;20234;-89
2022/04/23 14:47:45;;;;;;;4.27;3.10;;;;;;;17.35;46.92;95699.50;4866312;29;20218;-90
2022/04/23 14:50:12;;;;;;;6.50;3.30;;;;;;;17.60;47.28;95772.78;4875784;29;20226;-89
2022/04/23 14:55:31;;;;;;;3.97;2.87;;;;;;;19.21;47.23;96026.28;4883337;29;20211;-90
2022/04/23 14:57:58;;;;;;;4.93;3.03;;;;;;;17.55;47.18;95737.94;4868227;29;20302;-91
2022/04/23 15:00:25;;;;;;;3.47;2.83;;;;;;;16.32;47.34;95526.88;4864917;29;20229;-89
2022/04/23 15:02:54;;;;;;;2.73;2.53;;;;;;;17.28;47.38;95695.16;4862460;29;20209;-89
2022/04/23 15:05:22;;;;;;;5.43;2.97;;;;;;;17.26;47.18;95698.53;4887386;29;20239;-90
2022/04/23 15:07:49;;;;;;;4.57;3.03;;;;;;;16.20;47.08;95493.72;4872084;29;20226;-90
2022/04/23 15:10:16;;;;;;;5.43;3.10;;;;;;;17.04;47.04;95630.44;4868788;29;20235;-89
2022/04/23 15:12:44;;;;;;;7.33;3.27;;;;;;;19.22;47.09;95995.72;4884104;29;20210;-91
2022/04/23 15:15:12;;;;;;;4.90;3.00;;;;;;;16.61;47.03;95584.91;4868054;29;20214;-90
2022/04/23 15:17:42;;;;;;;4.37;3.20;;;;;;;16.35;47.28;95528.63;4862004;29;20278;-89
2022/04/23 15:20:10;;;;;;;4.37;3.10;;;;;;;17.09;47.39;95651.69;4863584;29;20234;-90
2022/04/23 15:22:37;;;;;;;4.63;2.93;;;;;;;17.25;46.92;95672.28;4859801;29;20209;-90